createdAt,value
2022-10-19T00:01:04.659Z,8.60
2022-10-19T00:03:33.058Z,8.60
2022-10-19T00:06:01.350Z,8.60
2022-10-19T00:08:29.354Z,8.60
2022-10-19T00:10:58.715Z,8.60
2022-10-19T00:13:26.772Z,8.60
2022-10-19T00:15:54.826Z,8.50
2022-10-19T00:18:22.883Z,8.50
2022-10-19T00:20:50.950Z,8.50
2022-10-19T00:23:18.969Z,8.40
2022-10-19T00:25:56.999Z,8.30
2022-10-19T00:28:26.546Z,8.30
2022-10-19T00:30:54.594Z,8.30
2022-10-19T00:33:22.654Z,8.30
2022-10-19T00:35:50.961Z,8.20
2022-10-19T00:38:19.051Z,8.20
2022-10-19T00:40:48.271Z,8.20
2022-10-19T00:43:17.510Z,8.20
2022-10-19T00:45:46.971Z,8.20
2022-10-19T00:48:18.528Z,8.20
2022-10-19T00:50:48.099Z,8.20
2022-10-19T00:53:16.432Z,8.10
2022-10-19T00:55:44.803Z,8.10
2022-10-19T00:58:13.229Z,8.10
2022-10-19T01:00:41.426Z,8.10
2022-10-19T01:03:13.276Z,8.00
2022-10-19T01:05:42.286Z,8.00
2022-10-19T01:08:11.066Z,8.00
2022-10-19T01:10:54.062Z,7.90
2022-10-19T01:13:32.975Z,7.80
2022-10-19T01:16:06.455Z,7.80
2022-10-19T01:18:44.680Z,7.80
2022-10-19T01:21:25.012Z,7.80
2022-10-19T01:24:25.515Z,7.70
2022-10-19T01:27:33.404Z,7.60
2022-10-19T01:30:16.756Z,7.60
2022-10-19T01:32:56.046Z,7.50
2022-10-19T01:35:33.973Z,7.50
2022-10-19T01:38:12.691Z,7.50
2022-10-19T01:40:46.346Z,7.50
2022-10-19T01:43:23.135Z,7.50
2022-10-19T01:45:55.335Z,7.50
2022-10-19T01:48:28.012Z,7.50
2022-10-19T01:51:01.247Z,7.50
2022-10-19T01:53:31.495Z,7.50
2022-10-19T01:56:03.195Z,7.50
2022-10-19T01:58:36.284Z,7.50
2022-10-19T02:01:08.020Z,7.40
2022-10-19T02:03:37.240Z,7.40
2022-10-19T02:06:07.824Z,7.40
2022-10-19T02:08:40.254Z,7.40
2022-10-19T02:11:08.910Z,7.40
2022-10-19T02:13:38.539Z,7.30
2022-10-19T02:16:14.110Z,7.30
2022-10-19T02:18:46.696Z,7.30
2022-10-19T02:21:14.718Z,7.20
2022-10-19T02:23:42.700Z,7.10
2022-10-19T02:26:10.831Z,7.10
2022-10-19T02:28:39.554Z,7.10
2022-10-19T02:31:09.040Z,7.00
2022-10-19T02:33:38.430Z,7.10
2022-10-19T02:36:06.902Z,7.10
2022-10-19T02:38:35.266Z,7.10
2022-10-19T02:41:09.671Z,7.10
2022-10-19T02:43:40.208Z,7.10
2022-10-19T02:46:15.158Z,7.10
2022-10-19T02:48:44.167Z,7.10
2022-10-19T02:51:33.735Z,7.00
2022-10-19T02:54:04.993Z,7.00
2022-10-19T02:56:34.160Z,6.90
2022-10-19T02:59:02.395Z,6.90
2022-10-19T03:01:31.942Z,6.90
2022-10-19T03:03:59.967Z,6.90
2022-10-19T03:06:27.984Z,6.80
2022-10-19T03:08:55.990Z,6.90
2022-10-19T03:11:24.038Z,6.80
2022-10-19T03:13:52.012Z,6.80
2022-10-19T03:16:20.363Z,6.80
2022-10-19T03:18:50.604Z,6.80
2022-10-19T03:21:19.295Z,6.80
2022-10-19T03:23:47.322Z,6.70
2022-10-19T03:26:17.033Z,6.70
2022-10-19T03:28:45.079Z,6.70
2022-10-19T03:31:13.402Z,6.70
2022-10-19T03:33:41.381Z,6.70
2022-10-19T03:36:21.608Z,6.70
2022-10-19T03:38:51.841Z,6.70
2022-10-19T03:41:21.348Z,6.70
2022-10-19T03:43:49.532Z,6.70
2022-10-19T03:46:18.293Z,6.70
2022-10-19T03:48:46.307Z,6.70
2022-10-19T03:51:16.330Z,6.70
2022-10-19T03:53:46.591Z,6.60
2022-10-19T03:56:16.697Z,6.60
2022-10-19T03:58:45.932Z,6.60
2022-10-19T04:01:16.329Z,6.60
2022-10-19T04:03:44.868Z,6.60
2022-10-19T04:06:18.210Z,6.60
2022-10-19T04:08:51.193Z,6.70
2022-10-19T04:11:22.907Z,6.80
2022-10-19T04:13:51.547Z,6.90
2022-10-19T04:16:20.721Z,7.00
2022-10-19T04:18:49.199Z,7.10
2022-10-19T04:21:23.892Z,7.10
2022-10-19T04:23:54.248Z,7.20
2022-10-19T04:26:22.387Z,7.30
2022-10-19T04:28:50.665Z,7.40
2022-10-19T04:31:18.836Z,7.60
2022-10-19T04:36:20.060Z,8.00
2022-10-19T04:38:48.372Z,8.20
2022-10-19T04:41:19.327Z,8.20
2022-10-19T04:43:47.822Z,8.20
2022-10-19T04:46:17.728Z,8.20
2022-10-19T04:48:46.813Z,8.10
2022-10-19T04:51:14.939Z,8.00
2022-10-19T04:53:44.869Z,7.90
2022-10-19T04:56:16.419Z,7.80
2022-10-19T04:58:46.461Z,7.70
2022-10-19T05:01:16.418Z,7.60
2022-10-19T05:03:45.271Z,7.50
2022-10-19T05:06:14.703Z,7.40
2022-10-19T05:08:43.054Z,7.40
2022-10-19T05:11:14.196Z,7.30
2022-10-19T05:13:43.027Z,7.30
2022-10-19T05:16:14.792Z,7.20
2022-10-19T05:18:42.871Z,7.10
2022-10-19T05:21:13.095Z,7.10
2022-10-19T05:23:42.275Z,7.00
2022-10-19T05:26:11.958Z,7.00
2022-10-19T05:28:40.543Z,7.00
2022-10-19T05:31:10.999Z,6.90
2022-10-19T05:33:41.109Z,6.90
2022-10-19T05:36:18.030Z,6.80
2022-10-19T05:38:47.745Z,6.80
2022-10-19T05:41:16.267Z,6.80
2022-10-19T05:43:44.989Z,6.80
2022-10-19T05:46:14.830Z,6.80
2022-10-19T05:48:44.211Z,6.70
2022-10-19T05:51:17.066Z,6.70
2022-10-19T05:53:45.947Z,6.60
2022-10-19T05:56:16.198Z,6.60
2022-10-19T05:58:45.064Z,6.60
2022-10-19T06:01:14.035Z,6.60
2022-10-19T06:03:43.664Z,6.60
2022-10-19T06:06:12.095Z,6.60
2022-10-19T06:08:40.538Z,6.60
2022-10-19T06:11:10.350Z,6.60
2022-10-19T06:13:39.063Z,6.60
2022-10-19T06:16:08.711Z,6.60
2022-10-19T06:18:37.179Z,6.60
2022-10-19T06:21:09.249Z,6.60
2022-10-19T06:23:37.791Z,6.60
2022-10-19T06:26:08.450Z,6.60
2022-10-19T06:28:36.929Z,6.70
2022-10-19T06:31:08.423Z,6.60
2022-10-19T06:33:38.040Z,6.70
2022-10-19T06:36:12.459Z,6.70
2022-10-19T06:38:40.609Z,6.70
2022-10-19T06:41:09.587Z,6.70
2022-10-19T06:43:37.620Z,6.80
2022-10-19T06:46:06.810Z,6.80
2022-10-19T06:48:34.854Z,6.90
2022-10-19T06:51:06.336Z,6.90
2022-10-19T06:53:36.613Z,7.00
2022-10-19T06:56:07.177Z,7.00
2022-10-19T06:58:37.302Z,7.00
2022-10-19T07:01:07.637Z,7.10
2022-10-19T07:03:36.989Z,7.10
2022-10-19T07:06:07.848Z,7.10
2022-10-19T07:08:38.851Z,7.20
2022-10-19T07:11:09.537Z,7.30
2022-10-19T07:13:37.881Z,7.40
2022-10-19T07:16:07.672Z,7.50
2022-10-19T07:18:36.513Z,7.60
2022-10-19T07:21:06.869Z,7.70
2022-10-19T07:23:37.955Z,7.80
2022-10-19T07:26:07.728Z,7.90
2022-10-19T07:28:36.474Z,8.00
2022-10-19T07:31:09.256Z,8.10
2022-10-19T07:33:37.518Z,8.30
2022-10-19T07:36:08.608Z,8.40
2022-10-19T07:38:38.641Z,8.40
2022-10-19T07:41:08.477Z,8.50
2022-10-19T07:43:36.844Z,8.50
2022-10-19T07:46:07.145Z,8.50
2022-10-19T07:48:36.118Z,8.60
2022-10-19T07:51:06.164Z,8.60
2022-10-19T07:53:34.315Z,8.80
2022-10-19T07:56:06.325Z,8.80
2022-10-19T07:58:35.380Z,8.90
2022-10-19T08:01:03.923Z,9.00
2022-10-19T08:04:31.334Z,9.00
2022-10-19T08:06:20.581Z,9.10
2022-10-19T08:08:49.715Z,9.00
2022-10-19T08:11:20.756Z,9.00
2022-10-19T08:13:49.742Z,9.00
2022-10-19T08:16:26.556Z,9.10
2022-10-19T08:18:57.482Z,9.20
2022-10-19T08:21:25.816Z,9.30
2022-10-19T08:23:53.811Z,9.30
2022-10-19T08:26:23.324Z,9.40
2022-10-19T08:28:51.319Z,9.50
2022-10-19T08:31:24.156Z,9.60
2022-10-19T08:33:52.752Z,9.70
2022-10-19T08:36:21.587Z,9.80
2022-10-19T08:38:50.406Z,9.90
2022-10-19T08:41:33.998Z,10.10
2022-10-19T08:44:24.860Z,10.10
2022-10-19T08:47:02.762Z,10.20
2022-10-19T08:49:32.958Z,10.30
2022-10-19T08:52:05.115Z,10.40
2022-10-19T08:54:41.650Z,10.50
2022-10-19T08:57:19.786Z,10.50
2022-10-19T08:59:53.130Z,10.70
2022-10-19T09:02:29.618Z,10.60
2022-10-19T09:05:02.208Z,10.60
2022-10-19T09:07:32.727Z,10.80
2022-10-19T09:10:05.412Z,10.80
2022-10-19T09:12:43.463Z,10.80
2022-10-19T09:15:15.826Z,10.80
2022-10-19T09:17:43.905Z,10.90
2022-10-19T09:20:18.482Z,10.90
2022-10-19T09:22:47.701Z,10.90
2022-10-19T09:25:20.592Z,11.00
2022-10-19T09:27:54.378Z,10.90
2022-10-19T09:30:24.303Z,11.00
2022-10-19T09:33:00.152Z,11.00
2022-10-19T09:35:33.221Z,11.00
2022-10-19T09:38:01.515Z,11.10
2022-10-19T09:40:31.709Z,11.10
2022-10-19T09:43:08.857Z,11.10
2022-10-19T09:45:44.284Z,11.20
2022-10-19T09:48:21.476Z,11.20
2022-10-19T09:50:55.727Z,11.30
2022-10-19T09:53:24.650Z,11.30
2022-10-19T09:55:59.314Z,11.40
2022-10-19T09:58:32.988Z,11.50
2022-10-19T10:01:02.558Z,11.50
2022-10-19T10:03:32.217Z,11.50
2022-10-19T10:06:03.651Z,11.50
2022-10-19T10:08:34.615Z,11.60
2022-10-19T10:11:13.457Z,11.60
2022-10-19T10:13:45.340Z,11.50
2022-10-19T10:16:17.571Z,11.60
2022-10-19T10:18:54.947Z,11.60
2022-10-19T10:21:25.926Z,11.70
2022-10-19T10:24:02.764Z,11.70
2022-10-19T10:26:30.853Z,11.70
2022-10-19T10:29:01.575Z,11.80
2022-10-19T10:31:31.517Z,11.90
2022-10-19T10:34:12.240Z,11.90
2022-10-19T10:36:52.646Z,11.90
2022-10-19T10:39:21.307Z,12.00
2022-10-19T10:41:50.393Z,12.00
2022-10-19T10:44:22.527Z,12.00
2022-10-19T10:46:56.485Z,12.00
2022-10-19T10:49:27.751Z,12.00
2022-10-19T10:51:57.989Z,12.00
2022-10-19T10:54:27.187Z,12.10
2022-10-19T10:57:07.082Z,12.20
2022-10-19T10:59:44.683Z,12.20
2022-10-19T11:02:35.987Z,12.30
2022-10-19T11:05:11.801Z,12.40
2022-10-19T11:07:44.089Z,12.30
2022-10-19T11:10:21.276Z,12.30
2022-10-19T11:12:55.260Z,12.30
2022-10-19T11:18:11.803Z,12.30
2022-10-19T11:20:48.197Z,12.30
2022-10-19T11:23:21.250Z,12.40
2022-10-19T11:26:02.535Z,12.40
2022-10-19T11:28:46.544Z,12.60
2022-10-19T11:31:20.347Z,12.60
2022-10-19T11:34:01.178Z,12.60
2022-10-19T11:36:43.346Z,12.60
2022-10-19T11:39:31.111Z,12.60
2022-10-19T11:42:05.741Z,12.60
2022-10-19T11:44:46.840Z,12.70
2022-10-19T11:47:33.956Z,12.70
2022-10-19T11:50:19.587Z,12.70
2022-10-19T11:52:57.284Z,12.70
2022-10-19T11:55:38.082Z,12.70
2022-10-19T11:58:17.636Z,12.80
2022-10-19T12:00:50.432Z,12.80
2022-10-19T12:03:46.997Z,12.90
2022-10-19T12:06:23.770Z,13.00
2022-10-19T12:09:07.416Z,13.00
2022-10-19T12:11:50.390Z,13.00
2022-10-19T12:14:21.459Z,13.00
2022-10-19T12:16:53.392Z,13.00
2022-10-19T12:19:26.820Z,13.00
2022-10-19T12:21:59.423Z,13.00
2022-10-19T12:24:30.239Z,13.00
2022-10-19T12:26:58.910Z,13.10
2022-10-19T12:29:29.249Z,13.20
2022-10-19T12:31:58.776Z,13.20
2022-10-19T12:34:36.284Z,13.20
2022-10-19T12:37:09.978Z,13.20
2022-10-19T12:39:44.582Z,13.10
2022-10-19T12:42:22.638Z,13.20
2022-10-19T12:45:14.595Z,13.20
2022-10-19T12:48:18.952Z,13.20
2022-10-19T12:51:13.102Z,13.20
2022-10-19T12:53:44.431Z,13.20
2022-10-19T12:56:20.174Z,13.30
2022-10-19T12:58:55.146Z,13.20
2022-10-19T13:01:26.751Z,13.20
2022-10-19T13:04:08.889Z,13.20
2022-10-19T13:06:42.197Z,13.30
2022-10-19T13:09:21.603Z,13.30
2022-10-19T13:12:26.750Z,13.30
2022-10-19T13:14:56.455Z,13.30
2022-10-19T13:17:43.837Z,13.30
2022-10-19T13:20:49.631Z,13.30
2022-10-19T13:23:42.119Z,13.30
2022-10-19T13:26:33.739Z,13.30
2022-10-19T13:29:02.040Z,13.30
2022-10-19T13:31:31.414Z,13.20
2022-10-19T13:33:59.552Z,13.30
2022-10-19T13:36:28.227Z,13.30
2022-10-19T13:39:18.289Z,13.30
2022-10-19T13:41:57.357Z,13.30
2022-10-19T13:44:33.901Z,13.30
2022-10-19T13:47:28.473Z,13.30
2022-10-19T13:50:27.799Z,13.30
2022-10-19T13:53:20.234Z,13.30
2022-10-19T13:56:23.600Z,13.30
2022-10-19T13:59:23.779Z,13.20
2022-10-19T14:02:15.723Z,13.20
2022-10-19T14:04:52.994Z,13.20
2022-10-19T14:07:27.304Z,13.10
2022-10-19T14:10:08.361Z,13.10
2022-10-19T14:12:41.489Z,13.10
2022-10-19T14:15:23.541Z,13.10
2022-10-19T14:17:51.689Z,13.00
2022-10-19T14:20:38.621Z,12.90
2022-10-19T14:23:20.588Z,12.90
2022-10-19T14:25:52.550Z,12.90
2022-10-19T14:28:23.415Z,12.90
2022-10-19T14:30:56.927Z,13.00
2022-10-19T14:33:26.083Z,12.90
2022-10-19T14:35:55.460Z,12.90
2022-10-19T14:38:35.126Z,12.80
2022-10-19T14:41:03.619Z,12.90
2022-10-19T14:43:35.452Z,12.80
2022-10-19T14:46:13.377Z,12.70
2022-10-19T14:48:45.328Z,12.70
2022-10-19T14:51:23.276Z,12.60
2022-10-19T14:53:54.715Z,12.60
2022-10-19T14:56:27.495Z,12.50
2022-10-19T14:59:00.368Z,12.50
2022-10-19T15:01:28.492Z,12.50
2022-10-19T15:03:57.082Z,12.40
2022-10-19T15:06:28.391Z,12.30
2022-10-19T15:08:58.516Z,12.30
2022-10-19T15:11:32.194Z,12.30
2022-10-19T15:14:04.897Z,12.20
2022-10-19T15:16:42.225Z,12.10
2022-10-19T15:19:19.286Z,12.10
2022-10-19T15:21:47.730Z,12.00
2022-10-19T15:24:27.462Z,12.00
2022-10-19T15:27:08.643Z,11.90
2022-10-19T15:29:40.225Z,11.80
2022-10-19T15:32:15.815Z,11.80
2022-10-19T15:34:46.846Z,11.70
2022-10-19T15:37:19.816Z,11.70
2022-10-19T15:39:49.060Z,11.70
2022-10-19T15:42:31.916Z,11.70
2022-10-19T15:45:01.370Z,11.60
2022-10-19T15:47:30.380Z,11.60
2022-10-19T15:50:01.389Z,11.60
2022-10-19T15:52:31.230Z,11.50
2022-10-19T15:55:00.597Z,11.60
2022-10-19T15:57:31.736Z,11.50
2022-10-19T16:00:08.195Z,11.50
2022-10-19T16:02:36.308Z,11.40
2022-10-19T16:05:04.381Z,11.40
2022-10-19T16:07:34.916Z,11.40
2022-10-19T16:10:03.132Z,11.40
2022-10-19T16:12:31.145Z,11.30
2022-10-19T16:14:59.189Z,11.30
2022-10-19T16:17:28.695Z,11.20
2022-10-19T16:19:56.752Z,11.20
2022-10-19T16:22:24.817Z,11.10
2022-10-19T16:24:53.092Z,11.10
2022-10-19T16:27:21.161Z,11.10
2022-10-19T16:29:49.162Z,11.00
2022-10-19T16:32:17.191Z,11.00
2022-10-19T16:34:47.608Z,11.00
2022-10-19T16:37:15.636Z,10.90
2022-10-19T16:39:43.615Z,10.90
2022-10-19T16:42:11.627Z,10.90
2022-10-19T16:44:39.636Z,10.90
2022-10-19T16:47:07.701Z,10.80
2022-10-19T16:49:35.694Z,10.80
2022-10-19T16:52:06.203Z,10.70
2022-10-19T16:54:34.886Z,10.60
2022-10-19T16:57:07.167Z,10.70
2022-10-19T16:59:37.586Z,10.60
2022-10-19T17:02:05.807Z,10.60
2022-10-19T17:04:34.146Z,10.50
2022-10-19T17:07:02.151Z,10.50
2022-10-19T17:09:49.806Z,10.50
2022-10-19T17:12:19.798Z,10.50
2022-10-19T17:14:47.795Z,10.40
2022-10-19T17:17:17.184Z,10.40
2022-10-19T17:19:45.333Z,10.40
2022-10-19T17:22:13.357Z,10.40
2022-10-19T17:24:42.924Z,10.30
2022-10-19T17:27:11.352Z,10.30
2022-10-19T17:29:40.401Z,10.30
2022-10-19T17:32:08.663Z,10.20
2022-10-19T17:34:36.727Z,10.20
2022-10-19T17:37:05.162Z,10.20
2022-10-19T17:39:33.348Z,10.20
2022-10-19T17:42:04.261Z,10.20
2022-10-19T17:44:32.591Z,10.10
2022-10-19T17:47:01.820Z,10.10
2022-10-19T17:49:30.439Z,10.10
2022-10-19T17:51:58.690Z,10.10
2022-10-19T17:54:27.132Z,10.10
2022-10-19T17:56:55.281Z,10.10
2022-10-19T17:59:34.848Z,10.10
2022-10-19T18:02:03.853Z,10.00
2022-10-19T18:04:31.943Z,10.00
2022-10-19T18:06:59.985Z,10.00
2022-10-19T18:09:27.995Z,10.00
2022-10-19T18:11:55.981Z,10.00
2022-10-19T18:14:25.354Z,10.00
2022-10-19T18:16:53.366Z,10.00
2022-10-19T18:19:21.608Z,9.90
2022-10-19T18:21:49.791Z,9.90
2022-10-19T18:24:21.383Z,9.90
2022-10-19T18:26:50.028Z,9.80
2022-10-19T18:29:20.976Z,9.80
2022-10-19T18:31:52.232Z,9.80
2022-10-19T18:34:22.266Z,9.70
2022-10-19T18:36:50.457Z,9.70
2022-10-19T18:39:18.960Z,9.60
2022-10-19T18:41:48.249Z,9.60
2022-10-19T18:44:16.294Z,9.60
2022-10-19T18:46:45.427Z,9.60
2022-10-19T18:49:14.828Z,9.60
2022-10-19T18:51:42.861Z,9.60
2022-10-19T18:54:12.284Z,9.50
2022-10-19T18:56:40.298Z,9.50
2022-10-19T18:59:08.338Z,9.50
2022-10-19T19:01:36.412Z,9.40
2022-10-19T19:04:09.285Z,9.30
2022-10-19T19:06:39.631Z,9.30
2022-10-19T19:09:10.660Z,9.30
2022-10-19T19:11:41.048Z,9.30
2022-10-19T19:14:14.099Z,9.30
2022-10-19T19:16:43.555Z,9.20
2022-10-19T19:19:13.280Z,9.20
2022-10-19T19:21:44.631Z,9.30
2022-10-19T19:24:15.087Z,9.20
2022-10-19T19:26:46.702Z,9.20
2022-10-19T19:29:14.947Z,9.20
2022-10-19T19:31:43.049Z,9.20
2022-10-19T19:34:11.435Z,9.20
2022-10-19T19:39:16.722Z,9.00
2022-10-19T19:41:44.837Z,9.00
2022-10-19T19:44:12.865Z,9.00
2022-10-19T19:46:40.911Z,8.90
2022-10-19T19:49:08.937Z,8.90
2022-10-19T19:51:37.007Z,8.90
2022-10-19T19:54:05.521Z,8.90
2022-10-19T19:56:36.793Z,9.00
2022-10-19T19:59:04.811Z,8.90
2022-10-19T20:01:33.637Z,9.00
2022-10-19T20:06:36.919Z,9.00
2022-10-19T20:09:05.948Z,9.10
2022-10-19T20:11:39.702Z,9.10
2022-10-19T20:14:10.066Z,9.00
2022-10-19T20:16:38.050Z,9.00
2022-10-19T20:19:09.233Z,9.00
2022-10-19T20:21:37.375Z,9.00
2022-10-19T20:24:06.000Z,9.00
2022-10-19T20:26:35.636Z,8.90
2022-10-19T20:29:05.091Z,8.90
2022-10-19T20:31:39.176Z,8.90
2022-10-19T20:34:12.314Z,8.90
2022-10-19T20:36:40.403Z,8.90
2022-10-19T20:39:08.585Z,8.80
2022-10-19T20:41:37.972Z,8.80
2022-10-19T20:44:06.271Z,8.80
2022-10-19T20:46:34.593Z,8.70
2022-10-19T20:49:03.103Z,8.70
2022-10-19T20:51:32.837Z,8.70
2022-10-19T20:54:02.440Z,8.60
2022-10-19T20:56:32.555Z,8.50
2022-10-19T21:01:39.166Z,8.50
2022-10-19T21:04:09.509Z,8.40
2022-10-19T21:06:40.458Z,8.40
2022-10-19T21:09:09.580Z,8.30
2022-10-19T21:11:39.623Z,8.30
2022-10-19T21:14:12.564Z,8.30
2022-10-19T21:16:41.096Z,8.20
2022-10-19T21:19:12.043Z,8.20
2022-10-19T21:21:42.685Z,8.20
2022-10-19T21:24:13.202Z,8.20
2022-10-19T21:26:41.540Z,8.10
2022-10-19T21:29:12.434Z,8.10
2022-10-19T21:31:44.123Z,8.10
2022-10-19T21:34:16.115Z,8.10
2022-10-19T21:36:44.270Z,8.10
2022-10-19T21:39:12.303Z,8.10
2022-10-19T21:41:40.418Z,8.10
2022-10-19T21:44:09.843Z,8.00
2022-10-19T21:46:37.848Z,8.00
2022-10-19T21:49:05.871Z,8.00
2022-10-19T21:51:37.343Z,8.00
2022-10-19T21:54:06.696Z,8.00
2022-10-19T21:56:35.593Z,8.00
2022-10-19T21:59:03.597Z,8.00
2022-10-19T22:01:38.506Z,7.90
2022-10-19T22:04:11.925Z,7.90
2022-10-19T22:06:40.001Z,7.80
2022-10-19T22:09:09.569Z,7.70
2022-10-19T22:11:37.634Z,7.60
2022-10-19T22:14:06.219Z,7.50
2022-10-19T22:16:37.020Z,7.50
2022-10-19T22:19:06.206Z,7.40
2022-10-19T22:21:35.382Z,7.40
2022-10-19T22:24:05.575Z,7.30
2022-10-19T22:26:36.478Z,7.30
2022-10-19T22:29:06.527Z,7.30
2022-10-19T22:31:37.084Z,7.30
2022-10-19T22:34:06.872Z,7.30
2022-10-19T22:36:34.876Z,7.30
2022-10-19T22:39:02.964Z,7.30
2022-10-19T22:41:30.975Z,7.30
2022-10-19T22:43:58.983Z,7.20
2022-10-19T22:46:27.006Z,7.10
2022-10-19T22:48:56.489Z,7.10
2022-10-19T22:51:24.587Z,7.10
2022-10-19T22:53:52.602Z,7.10
2022-10-19T22:56:20.659Z,7.10
2022-10-19T22:58:48.638Z,7.00
2022-10-19T23:01:17.888Z,7.00
2022-10-19T23:03:46.119Z,7.00
2022-10-19T23:06:16.161Z,7.00
2022-10-19T23:08:44.866Z,7.00
2022-10-19T23:11:13.114Z,6.90
2022-10-19T23:13:41.197Z,6.90
2022-10-19T23:16:10.176Z,6.80
2022-10-19T23:18:40.357Z,6.80
2022-10-19T23:21:10.350Z,6.70
2022-10-19T23:23:39.715Z,6.80
2022-10-19T23:26:09.759Z,6.70
2022-10-19T23:28:40.070Z,6.70
2022-10-19T23:31:10.124Z,6.60
2022-10-19T23:33:38.579Z,6.60
2022-10-19T23:36:08.577Z,6.60
2022-10-19T23:38:37.335Z,6.50
2022-10-19T23:41:06.917Z,6.50
2022-10-19T23:46:04.568Z,6.50
2022-10-19T23:48:32.883Z,6.50
2022-10-19T23:51:02.401Z,6.50
2022-10-19T23:53:35.835Z,6.50
2022-10-19T23:56:09.701Z,6.50
2022-10-19T23:58:37.732Z,6.50
